Time;durP1;ratioP1;P1;durP2;ratioP2;P2;SDS_P1;SDS_P2;PMS_P1;PMS_P2;Temp;Humidity;BMP_temperature;BMP_pressure;BME280_temperature;BME280_humidity;BME280_pressure;Samples;Min_cycle;Max_cycle;Signal;HPM_P1;HPM_P2
2023/05/05 00:01:12;;;;;;;5.25;5.15;;;;;;;;;;4205255;28;20086;-59
2023/05/05 00:03:34;;;;;;;4.43;4.32;;;;;;;;;;4208083;28;20319;-59
2023/05/05 00:05:54;;;;;;;3.92;3.83;;;;;;;;;;4208274;28;20043;-59
2023/05/05 00:08:15;;;;;;;5.85;5.45;;;;;;;;;;4208126;28;20054;-59
2023/05/05 00:10:35;;;;;;;4.43;4.32;;;;;;;;;;4208108;28;20039;-59
2023/05/05 00:12:55;;;;;;;4.50;4.40;;;;;;;;;;4207927;28;20048;-58
2023/05/05 00:15:17;;;;;;;4.68;4.55;;;;;;;;;;4207887;28;20120;-59
2023/05/05 00:17:37;;;;;;;5.03;4.90;;;;;;;;;;4208101;28;20047;-59
2023/05/05 00:19:58;;;;;;;4.90;4.80;;;;;;;;;;4207979;28;20047;-59
2023/05/05 00:22:18;;;;;;;5.47;5.38;;;;;;;;;;4207916;28;20066;-59
2023/05/05 00:24:38;;;;;;;4.03;3.92;;;;;;;;;;4208168;28;20062;-59
2023/05/05 00:26:58;;;;;;;4.85;4.75;;;;;;;;;;4207792;28;20112;-59
2023/05/05 00:29:19;;;;;;;5.60;5.40;;;;;;;;;;4207928;28;20047;-59
2023/05/05 00:31:39;;;;;;;5.70;5.60;;;;;;;;;;4207245;28;20409;-59
2023/05/05 00:34:00;;;;;;;5.15;4.97;;;;;;;;;;4207263;28;20228;-59
2023/05/05 00:36:20;;;;;;;4.43;4.32;;;;;;;;;;4207839;28;20052;-59
2023/05/05 00:38:40;;;;;;;4.43;4.32;;;;;;;;;;4207297;28;20052;-59
2023/05/05 00:41:00;;;;;;;4.80;4.70;;;;;;;;;;4206973;28;20062;-59
2023/05/05 00:43:20;;;;;;;5.10;5.00;;;;;;;;;;4207053;28;20090;-59
2023/05/05 00:45:43;;;;;;;4.93;4.82;;;;;;;;;;4207622;28;20414;-59
2023/05/05 00:48:03;;;;;;;5.40;5.30;;;;;;;;;;4207187;28;20235;-59
2023/05/05 00:50:25;;;;;;;5.13;5.03;;;;;;;;;;4207424;28;20306;-59
2023/05/05 00:52:46;;;;;;;7.90;5.07;;;;;;;;;;4205950;28;20051;-59
2023/05/05 00:55:06;;;;;;;4.38;4.25;;;;;;;;;;4207835;28;20075;-58
2023/05/05 00:57:27;;;;;;;4.88;4.78;;;;;;;;;;4207533;28;20051;-59
2023/05/05 00:59:49;;;;;;;5.50;5.40;;;;;;;;;;4206954;28;20378;-58
2023/05/05 01:02:09;;;;;;;5.78;5.57;;;;;;;;;;4207410;28;20424;-59
2023/05/05 01:04:29;;;;;;;5.28;5.07;;;;;;;;;;4193387;28;20371;-59
2023/05/05 01:07:06;;;;;;;4.85;4.75;;;;;;;;;;4207091;28;20086;-59
2023/05/05 01:09:45;;;;;;;5.18;5.07;;;;;;;;;;4207358;28;20303;-59
2023/05/05 01:12:29;;;;;;;4.82;4.65;;;;;;;;;;4206037;28;20081;-59
2023/05/05 01:14:58;;;;;;;5.82;5.55;;;;;;;;;;4206870;28;20078;-58
2023/05/05 01:17:21;;;;;;;4.75;4.60;;;;;;;;;;4206790;28;20083;-58
2023/05/05 01:19:41;;;;;;;5.47;5.38;;;;;;;;;;4206004;28;20236;-59
2023/05/05 01:22:02;;;;;;;5.10;5.00;;;;;;;;;;4207265;28;20052;-59
2023/05/05 01:24:22;;;;;;;4.20;4.10;;;;;;;;;;4206753;28;20288;-59
2023/05/05 01:26:55;;;;;;;5.13;4.95;;;;;;;;;;4206710;28;20240;-59
2023/05/05 01:29:18;;;;;;;4.90;4.80;;;;;;;;;;4207119;28;20079;-59
2023/05/05 01:31:44;;;;;;;5.57;5.30;;;;;;;;;;4207073;28;20151;-59
2023/05/05 01:34:07;;;;;;;5.15;5.05;;;;;;;;;;4206949;28;20087;-59
2023/05/05 01:36:31;;;;;;;5.32;5.00;;;;;;;;;;4205441;28;20107;-59
2023/05/05 01:38:54;;;;;;;5.38;5.28;;;;;;;;;;4206470;28;20110;-59
2023/05/05 01:41:19;;;;;;;4.68;4.47;;;;;;;;;;4205368;28;20047;-59
2023/05/05 01:43:42;;;;;;;4.60;4.50;;;;;;;;;;4206874;28;20082;-59
2023/05/05 01:46:03;;;;;;;5.70;5.60;;;;;;;;;;4206678;28;20094;-59
2023/05/05 01:48:23;;;;;;;5.32;5.13;;;;;;;;;;4206567;28;20239;-59
2023/05/05 01:50:45;;;;;;;5.68;5.50;;;;;;;;;;4205373;28;20047;-59
2023/05/05 01:53:06;;;;;;;5.35;5.10;;;;;;;;;;4207195;28;20046;-59
2023/05/05 01:55:28;;;;;;;5.70;5.40;;;;;;;;;;4206814;28;20048;-59
2023/05/05 01:57:49;;;;;;;4.47;4.35;;;;;;;;;;4206049;28;20052;-59
2023/05/05 02:00:10;;;;;;;5.40;5.18;;;;;;;;;;4205089;28;20035;-59
2023/05/05 02:02:32;;;;;;;5.35;5.25;;;;;;;;;;4206714;28;20082;-59
2023/05/05 02:04:54;;;;;;;5.40;5.10;;;;;;;;;;4206498;28;20082;-59
2023/05/05 02:07:15;;;;;;;5.03;4.85;;;;;;;;;;4206745;28;20112;-59
2023/05/05 02:09:35;;;;;;;5.75;5.65;;;;;;;;;;4205381;28;20086;-59
2023/05/05 02:12:00;;;;;;;4.75;4.60;;;;;;;;;;4206561;28;20116;-58
2023/05/05 02:14:21;;;;;;;6.07;5.78;;;;;;;;;;4205993;28;20051;-58
2023/05/05 02:16:42;;;;;;;5.70;5.60;;;;;;;;;;4206110;28;20291;-59
2023/05/05 02:19:05;;;;;;;5.25;5.15;;;;;;;;;;4205752;28;20142;-58
2023/05/05 02:21:26;;;;;;;5.63;5.53;;;;;;;;;;4206405;28;20062;-59
2023/05/05 02:23:50;;;;;;;4.45;4.35;;;;;;;;;;4206346;28;20104;-58
2023/05/05 02:26:11;;;;;;;5.40;5.15;;;;;;;;;;4204748;28;20094;-59
2023/05/05 02:28:40;;;;;;;4.97;4.88;;;;;;;;;;4205793;28;20059;-59
2023/05/05 02:31:02;;;;;;;5.93;5.60;;;;;;;;;;4206191;28;20143;-59
2023/05/05 02:33:23;;;;;;;5.30;5.00;;;;;;;;;;4206030;28;20051;-59
2023/05/05 02:35:45;;;;;;;6.00;5.55;;;;;;;;;;4206229;28;20138;-59
2023/05/05 02:38:05;;;;;;;6.25;6.15;;;;;;;;;;4206298;28;20244;-59
2023/05/05 02:40:27;;;;;;;5.15;4.85;;;;;;;;;;4205784;28;20055;-59
2023/05/05 02:42:49;;;;;;;5.10;5.00;;;;;;;;;;4205967;28;20052;-58
2023/05/05 02:45:14;;;;;;;5.18;5.07;;;;;;;;;;4206003;28;20461;-58
2023/05/05 02:47:35;;;;;;;4.72;4.55;;;;;;;;;;4205900;28;20079;-58
2023/05/05 02:49:55;;;;;;;5.60;5.50;;;;;;;;;;4205029;28;20075;-58
2023/05/05 02:52:16;;;;;;;4.57;4.45;;;;;;;;;;4205413;28;20086;-58
2023/05/05 02:54:36;;;;;;;4.95;4.85;;;;;;;;;;4206143;28;20047;-58
2023/05/05 02:56:57;;;;;;;4.90;4.80;;;;;;;;;;4205805;28;20086;-59
2023/05/05 02:59:20;;;;;;;4.32;4.15;;;;;;;;;;4205524;28;20109;-58
2023/05/05 03:01:49;;;;;;;5.32;5.13;;;;;;;;;;4205873;28;20401;-59
2023/05/05 03:04:14;;;;;;;5.43;5.32;;;;;;;;;;4205689;28;20051;-58
2023/05/05 03:06:38;;;;;;;5.63;5.43;;;;;;;;;;4204885;28;20147;-58
2023/05/05 03:08:59;;;;;;;6.00;5.90;;;;;;;;;;4205867;28;20441;-58
2023/05/05 03:11:22;;;;;;;5.15;5.05;;;;;;;;;;4205192;28;20048;-59
2023/05/05 03:13:43;;;;;;;5.60;5.50;;;;;;;;;;4204258;28;20248;-58
2023/05/05 03:16:05;;;;;;;6.57;6.38;;;;;;;;;;4205325;28;20111;-59
2023/05/05 03:18:26;;;;;;;6.00;5.90;;;;;;;;;;4204483;28;20254;-59
2023/05/05 03:20:47;;;;;;;5.97;5.78;;;;;;;;;;4205217;28;20370;-59
2023/05/05 03:23:08;;;;;;;6.10;5.72;;;;;;;;;;4203759;28;20095;-59
2023/05/05 03:25:48;;;;;;;5.57;5.47;;;;;;;;;;4205446;28;20086;-59
2023/05/05 03:28:08;;;;;;;5.20;5.10;;;;;;;;;;4205736;28;20059;-59
2023/05/05 03:30:29;;;;;;;6.63;6.32;;;;;;;;;;4203388;28;20047;-59
2023/05/05 03:32:49;;;;;;;5.95;5.65;;;;;;;;;;4204898;28;20047;-59
2023/05/05 03:35:10;;;;;;;5.95;5.63;;;;;;;;;;4205428;28;20052;-59
2023/05/05 03:37:30;;;;;;;5.88;5.65;;;;;;;;;;4189265;28;20363;-59
2023/05/05 03:39:50;;;;;;;5.95;5.55;;;;;;;;;;4205236;28;20051;-59
2023/05/05 03:42:10;;;;;;;4.72;4.63;;;;;;;;;;4205500;28;20060;-59
2023/05/05 03:44:30;;;;;;;4.90;4.80;;;;;;;;;;4204744;28;20068;-59
2023/05/05 03:46:50;;;;;;;4.75;4.65;;;;;;;;;;4205247;28;20086;-59
2023/05/05 03:49:10;;;;;;;5.55;5.40;;;;;;;;;;4204787;28;20078;-58
2023/05/05 03:51:31;;;;;;;5.75;5.65;;;;;;;;;;4205096;28;20052;-58
2023/05/05 03:53:51;;;;;;;5.22;5.10;;;;;;;;;;4193651;28;20112;-59
2023/05/05 03:56:11;;;;;;;6.03;5.72;;;;;;;;;;4205207;28;20082;-59
2023/05/05 03:58:31;;;;;;;7.60;7.40;;;;;;;;;;4205165;28;20052;-58
2023/05/05 04:00:52;;;;;;;6.72;6.53;;;;;;;;;;4205287;28;20133;-59
2023/05/05 04:03:12;;;;;;;6.03;5.82;;;;;;;;;;4205043;28;20039;-58
2023/05/05 04:05:33;;;;;;;6.35;6.00;;;;;;;;;;4205068;28;20051;-59
2023/05/05 04:07:53;;;;;;;5.85;5.75;;;;;;;;;;4205337;28;20240;-59
2023/05/05 04:10:13;;;;;;;5.90;5.80;;;;;;;;;;4204701;28;20367;-59
2023/05/05 04:12:33;;;;;;;5.82;5.63;;;;;;;;;;4205155;28;20055;-59
2023/05/05 04:14:53;;;;;;;6.53;6.32;;;;;;;;;;4204511;28;20059;-59
2023/05/05 04:17:14;;;;;;;6.97;6.82;;;;;;;;;;4205038;28;20079;-58
2023/05/05 04:19:34;;;;;;;6.18;6.07;;;;;;;;;;4193257;28;20405;-59
2023/05/05 04:21:54;;;;;;;6.05;5.75;;;;;;;;;;4205027;28;20067;-59
2023/05/05 04:24:14;;;;;;;6.72;6.63;;;;;;;;;;4204702;28;20079;-59
2023/05/05 04:26:34;;;;;;;5.97;5.57;;;;;;;;;;4205019;28;20277;-59
2023/05/05 04:28:55;;;;;;;6.55;6.45;;;;;;;;;;4205022;28;20266;-59
2023/05/05 04:31:15;;;;;;;7.00;6.90;;;;;;;;;;4204746;28;20052;-59
2023/05/05 04:33:36;;;;;;;6.05;5.75;;;;;;;;;;4204936;28;20091;-59
2023/05/05 04:35:57;;;;;;;6.57;6.38;;;;;;;;;;4204375;28;20047;-59
2023/05/05 04:38:19;;;;;;;6.82;6.50;;;;;;;;;;4204319;28;20096;-59
2023/05/05 04:40:40;;;;;;;6.55;6.38;;;;;;;;;;4203269;28;20098;-59
2023/05/05 04:43:00;;;;;;;7.18;6.68;;;;;;;;;;4204123;28;20259;-59
2023/05/05 04:45:21;;;;;;;6.30;6.00;;;;;;;;;;4204784;28;20101;-59
2023/05/05 04:47:41;;;;;;;7.38;7.07;;;;;;;;;;4204106;28;20047;-59
2023/05/05 04:50:01;;;;;;;6.95;6.75;;;;;;;;;;4207405;28;20043;-59
2023/05/05 04:52:22;;;;;;;7.28;6.90;;;;;;;;;;4207691;28;20055;-59
2023/05/05 04:54:42;;;;;;;7.05;6.72;;;;;;;;;;4206684;28;20493;-59
2023/05/05 04:57:02;;;;;;;7.45;7.25;;;;;;;;;;4206494;28;20075;-59
2023/05/05 04:59:23;;;;;;;7.60;7.40;;;;;;;;;;4206761;28;20051;-59
2023/05/05 05:01:43;;;;;;;9.68;8.85;;;;;;;;;;4206552;28;20051;-59
2023/05/05 05:04:03;;;;;;;7.53;7.22;;;;;;;;;;4206176;28;20270;-59
2023/05/05 05:06:24;;;;;;;7.60;7.25;;;;;;;;;;4207244;28;20051;-59
2023/05/05 05:08:44;;;;;;;7.10;6.72;;;;;;;;;;4206411;28;20050;-59
2023/05/05 05:11:05;;;;;;;7.22;7.07;;;;;;;;;;4207511;28;20078;-59
2023/05/05 05:13:25;;;;;;;8.00;7.80;;;;;;;;;;4206036;28;20111;-59
2023/05/05 05:15:46;;;;;;;7.75;7.57;;;;;;;;;;4207525;28;20090;-59
2023/05/05 05:18:06;;;;;;;6.43;6.22;;;;;;;;;;4205919;28;20123;-60
2023/05/05 05:20:26;;;;;;;6.65;6.45;;;;;;;;;;4205739;28;20051;-60
2023/05/05 05:22:46;;;;;;;7.38;6.95;;;;;;;;;;4207302;28;20047;-60
2023/05/05 05:25:07;;;;;;;5.90;5.80;;;;;;;;;;4207226;28;20051;-61
2023/05/05 05:27:27;;;;;;;6.80;6.60;;;;;;;;;;4205441;28;20052;-61
2023/05/05 05:29:47;;;;;;;6.50;6.10;;;;;;;;;;4207184;28;20113;-60
2023/05/05 05:32:07;;;;;;;6.85;6.65;;;;;;;;;;4207389;28;20044;-60
2023/05/05 05:34:28;;;;;;;6.18;6.07;;;;;;;;;;4207023;28;20047;-61
2023/05/05 05:36:48;;;;;;;7.10;7.00;;;;;;;;;;4206920;28;20043;-60
2023/05/05 05:39:09;;;;;;;6.80;6.45;;;;;;;;;;4206613;28;20047;-60
2023/05/05 05:41:29;;;;;;;7.15;6.55;;;;;;;;;;4206346;28;20131;-60
2023/05/05 05:43:49;;;;;;;6.53;6.30;;;;;;;;;;4206804;28;20051;-61
2023/05/05 05:46:09;;;;;;;6.05;5.85;;;;;;;;;;4206065;28;20417;-61
2023/05/05 05:48:30;;;;;;;7.25;6.60;;;;;;;;;;4206831;28;20048;-60
2023/05/05 05:50:50;;;;;;;6.32;6.13;;;;;;;;;;4206654;28;20035;-61
2023/05/05 05:53:10;;;;;;;6.28;5.97;;;;;;;;;;4205440;28;20048;-61
2023/05/05 05:55:31;;;;;;;6.80;6.70;;;;;;;;;;4205214;28;20330;-60
2023/05/05 05:57:51;;;;;;;7.22;6.95;;;;;;;;;;4206806;28;20051;-60
2023/05/05 06:00:12;;;;;;;6.05;5.78;;;;;;;;;;4204551;28;20106;-60
2023/05/05 06:02:32;;;;;;;6.25;6.15;;;;;;;;;;4206832;28;20227;-61
2023/05/05 06:04:53;;;;;;;7.40;7.20;;;;;;;;;;4206538;28;20086;-60
2023/05/05 06:07:13;;;;;;;6.03;5.72;;;;;;;;;;4206258;28;20078;-60
2023/05/05 06:09:33;;;;;;;5.22;5.13;;;;;;;;;;4205039;28;20051;-60
2023/05/05 06:11:53;;;;;;;5.28;5.18;;;;;;;;;;4206588;28;20112;-60
2023/05/05 06:14:14;;;;;;;5.10;4.93;;;;;;;;;;4205686;28;20055;-60
2023/05/05 06:16:36;;;;;;;5.77;5.57;;;;;;;;;;4206518;28;20067;-60
2023/05/05 06:18:56;;;;;;;5.72;5.35;;;;;;;;;;4204544;28;20342;-60
2023/05/05 06:21:19;;;;;;;5.53;5.43;;;;;;;;;;4206872;28;20239;-60
2023/05/05 06:23:39;;;;;;;5.80;5.70;;;;;;;;;;4205773;28;20275;-61
2023/05/05 06:25:59;;;;;;;4.45;4.35;;;;;;;;;;4206517;28;20078;-61
2023/05/05 06:28:20;;;;;;;4.05;3.95;;;;;;;;;;4206369;28;20047;-61
2023/05/05 06:30:40;;;;;;;4.68;4.57;;;;;;;;;;4206169;28;20266;-60
2023/05/05 06:33:00;;;;;;;4.65;4.55;;;;;;;;;;4191116;28;20091;-61
2023/05/05 06:35:21;;;;;;;3.60;3.60;;;;;;;;;;4206446;28;20075;-60
2023/05/05 06:37:41;;;;;;;4.03;3.85;;;;;;;;;;4206279;28;20279;-61
2023/05/05 06:40:01;;;;;;;4.05;3.95;;;;;;;;;;4206057;28;20086;-60
2023/05/05 06:42:21;;;;;;;4.03;3.90;;;;;;;;;;4205827;28;20043;-60
2023/05/05 06:44:41;;;;;;;3.35;3.15;;;;;;;;;;4205729;28;20055;-61
2023/05/05 06:47:01;;;;;;;3.08;3.08;;;;;;;;;;4206023;28;20043;-61
2023/05/05 06:49:22;;;;;;;3.33;3.10;;;;;;;;;;4205362;28;20056;-61
2023/05/05 06:51:42;;;;;;;2.90;2.80;;;;;;;;;;4205174;28;20084;-61
2023/05/05 06:54:03;;;;;;;2.83;2.63;;;;;;;;;;4205059;28;20362;-60
2023/05/05 06:56:23;;;;;;;3.42;3.40;;;;;;;;;;4205405;28;20147;-61
2023/05/05 06:58:43;;;;;;;2.90;2.80;;;;;;;;;;4205826;28;20089;-61
2023/05/05 07:01:03;;;;;;;3.13;3.00;;;;;;;;;;4204581;28;20078;-61
2023/05/05 07:03:24;;;;;;;3.08;2.95;;;;;;;;;;4205806;28;20043;-61
2023/05/05 07:05:44;;;;;;;4.30;2.90;;;;;;;;;;4205124;28;20063;-61
2023/05/05 07:08:05;;;;;;;2.60;2.45;;;;;;;;;;4205398;28;20043;-61
2023/05/05 07:10:25;;;;;;;3.17;3.08;;;;;;;;;;4204377;28;20143;-61
2023/05/05 07:12:45;;;;;;;2.72;2.72;;;;;;;;;;4205374;28;20147;-61
2023/05/05 07:15:06;;;;;;;2.65;2.65;;;;;;;;;;4204155;28;20046;-61
2023/05/05 07:17:45;;;;;;;2.08;2.08;;;;;;;;;;4206042;28;20052;-61
2023/05/05 07:20:07;;;;;;;2.35;2.35;;;;;;;;;;4205500;28;20070;-61
2023/05/05 07:22:27;;;;;;;2.58;2.45;;;;;;;;;;4180851;28;20084;-61
2023/05/05 07:24:47;;;;;;;2.15;2.03;;;;;;;;;;4205514;28;20087;-61
2023/05/05 07:27:09;;;;;;;1.95;1.95;;;;;;;;;;4205423;28;20117;-61
2023/05/05 07:29:29;;;;;;;2.83;2.65;;;;;;;;;;4205151;28;20048;-61
2023/05/05 07:31:49;;;;;;;2.28;2.28;;;;;;;;;;4205619;28;20418;-62
2023/05/05 07:34:09;;;;;;;1.63;1.40;;;;;;;;;;4205634;28;20070;-61
2023/05/05 07:36:31;;;;;;;1.48;1.48;;;;;;;;;;4204648;28;20051;-62
2023/05/05 07:38:50;;;;;;;2.00;2.00;;;;;;;;;;4204314;28;20228;-62
2023/05/05 07:41:11;;;;;;;1.58;1.58;;;;;;;;;;4204529;28;20236;-62
2023/05/05 07:43:32;;;;;;;1.70;1.70;;;;;;;;;;4205269;28;20203;-62
2023/05/05 07:45:52;;;;;;;1.58;1.20;;;;;;;;;;4204268;28;20062;-61
2023/05/05 07:48:12;;;;;;;1.48;1.48;;;;;;;;;;4205398;28;20094;-62
2023/05/05 07:50:32;;;;;;;1.38;1.38;;;;;;;;;;4205544;28;20066;-62
2023/05/05 07:52:52;;;;;;;1.50;1.50;;;;;;;;;;4204519;28;20303;-62
2023/05/05 07:55:29;;;;;;;1.48;1.48;;;;;;;;;;4204164;28;20039;-62
2023/05/05 07:57:50;;;;;;;1.10;1.10;;;;;;;;;;4205250;28;20048;-62
2023/05/05 08:00:12;;;;;;;1.20;1.20;;;;;;;;;;4205000;28;20382;-62
2023/05/05 08:02:32;;;;;;;1.15;1.15;;;;;;;;;;4205108;28;20047;-62
2023/05/05 08:04:52;;;;;;;1.20;1.20;;;;;;;;;;4205238;28;20055;-62
2023/05/05 08:07:12;;;;;;;1.00;1.00;;;;;;;;;;4204706;28;20398;-62
2023/05/05 08:09:32;;;;;;;1.42;1.42;;;;;;;;;;4205446;28;20051;-62
2023/05/05 08:11:52;;;;;;;1.13;1.13;;;;;;;;;;4205384;28;20082;-62
2023/05/05 08:14:12;;;;;;;1.15;1.15;;;;;;;;;;4204418;28;20224;-62
2023/05/05 08:16:33;;;;;;;1.80;1.50;;;;;;;;;;4203702;28;20251;-62
2023/05/05 08:18:53;;;;;;;1.48;1.00;;;;;;;;;;4205276;28;20055;-62
2023/05/05 08:21:13;;;;;;;1.00;1.00;;;;;;;;;;4204541;28;20052;-62
2023/05/05 08:23:34;;;;;;;1.23;1.23;;;;;;;;;;4205345;28;20093;-62
2023/05/05 08:25:55;;;;;;;1.10;1.00;;;;;;;;;;4206192;28;20052;-62
2023/05/05 08:28:15;;;;;;;1.00;1.00;;;;;;;;;;4207748;28;20228;-62
2023/05/05 08:30:35;;;;;;;1.15;1.15;;;;;;;;;;4207450;28;20059;-62
2023/05/05 08:32:55;;;;;;;1.27;1.15;;;;;;;;;;4206088;28;20086;-62
2023/05/05 08:35:15;;;;;;;1.08;1.08;;;;;;;;;;4207816;28;20362;-62
2023/05/05 08:37:35;;;;;;;0.98;0.98;;;;;;;;;;4192627;28;20063;-62
2023/05/05 08:39:56;;;;;;;1.00;1.00;;;;;;;;;;4207402;28;20240;-62
2023/05/05 08:42:16;;;;;;;1.00;1.00;;;;;;;;;;4207640;28;20047;-62
2023/05/05 08:44:55;;;;;;;1.27;1.00;;;;;;;;;;4207098;28;20337;-62
2023/05/05 08:47:19;;;;;;;1.33;1.05;;;;;;;;;;4207298;28;20370;-62
2023/05/05 08:49:46;;;;;;;1.17;1.08;;;;;;;;;;4206940;28;20043;-62
2023/05/05 08:52:08;;;;;;;0.90;0.90;;;;;;;;;;4204143;28;20044;-62
2023/05/05 08:54:30;;;;;;;0.85;0.85;;;;;;;;;;4207505;28;20139;-62
2023/05/05 08:56:51;;;;;;;;;;;;;;;;;;4207423;28;20078;-62
2023/05/05 08:59:11;;;;;;;0.95;0.95;;;;;;;;;;4206689;28;19980;-62
2023/05/05 09:01:32;;;;;;;1.33;1.23;;;;;;;;;;4197449;28;20039;-62
2023/05/05 09:03:53;;;;;;;1.38;1.00;;;;;;;;;;4207362;28;20055;-62
2023/05/05 09:06:13;;;;;;;1.00;1.00;;;;;;;;;;4207445;28;20059;-62
2023/05/05 09:08:33;;;;;;;0.80;0.80;;;;;;;;;;4207497;28;20078;-62
2023/05/05 09:10:54;;;;;;;1.08;0.85;;;;;;;;;;4207408;28;20094;-62
2023/05/05 09:13:14;;;;;;;1.00;0.93;;;;;;;;;;4207418;28;20240;-62
2023/05/05 09:15:47;;;;;;;;;;;;;;;;;;4207804;28;20043;-62
2023/05/05 09:18:13;;;;;;;0.80;0.80;;;;;;;;;;4206407;28;19923;-63
2023/05/05 09:20:37;;;;;;;1.00;0.90;;;;;;;;;;4206020;28;20303;-62
2023/05/05 09:22:57;;;;;;;5.40;0.80;;;;;;;;;;4206147;28;20055;-62
2023/05/05 09:25:18;;;;;;;0.98;0.98;;;;;;;;;;4206170;28;20051;-62
2023/05/05 09:27:41;;;;;;;0.82;0.82;;;;;;;;;;4207074;28;20087;-62
2023/05/05 09:30:02;;;;;;;0.80;0.80;;;;;;;;;;4206360;28;20038;-62
2023/05/05 09:32:22;;;;;;;2.05;0.90;;;;;;;;;;4191886;28;20052;-62
2023/05/05 09:34:42;;;;;;;1.10;1.00;;;;;;;;;;4205211;28;20051;-62
2023/05/05 09:37:05;;;;;;;1.95;0.80;;;;;;;;;;4206470;28;20044;-62
2023/05/05 09:39:26;;;;;;;0.80;0.80;;;;;;;;;;4206231;28;20101;-62
2023/05/05 09:41:46;;;;;;;0.80;0.80;;;;;;;;;;4206921;28;20052;-62
2023/05/05 09:44:06;;;;;;;2.65;0.80;;;;;;;;;;4206229;28;20117;-62
2023/05/05 09:46:26;;;;;;;0.77;0.77;;;;;;;;;;4207014;28;20307;-62
2023/05/05 09:48:47;;;;;;;0.70;0.70;;;;;;;;;;4207146;28;20147;-62
2023/05/05 09:51:07;;;;;;;0.85;0.85;;;;;;;;;;4205976;28;20056;-62
2023/05/05 09:53:37;;;;;;;0.80;0.80;;;;;;;;;;4205771;28;20067;-62
2023/05/05 09:55:58;;;;;;;1.10;1.10;;;;;;;;;;4204689;28;20243;-62
2023/05/05 09:58:19;;;;;;;0.80;0.80;;;;;;;;;;4206693;28;20040;-62
2023/05/05 10:00:40;;;;;;;0.80;0.80;;;;;;;;;;4205859;28;20054;-62
2023/05/05 10:03:02;;;;;;;0.70;0.70;;;;;;;;;;4204605;28;20048;-62
2023/05/05 10:05:22;;;;;;;0.80;0.80;;;;;;;;;;4206750;28;20048;-62
2023/05/05 10:07:43;;;;;;;1.25;0.80;;;;;;;;;;4206679;28;20239;-62
2023/05/05 10:10:04;;;;;;;0.73;0.73;;;;;;;;;;4205282;28;20052;-63
2023/05/05 10:12:25;;;;;;;0.73;0.73;;;;;;;;;;4204233;28;20086;-63
2023/05/05 10:14:45;;;;;;;0.70;0.70;;;;;;;;;;4206604;28;20333;-63
2023/05/05 10:17:06;;;;;;;0.70;0.70;;;;;;;;;;4206213;28;20056;-63
2023/05/05 10:19:27;;;;;;;0.70;0.70;;;;;;;;;;4205060;28;20048;-63
2023/05/05 10:21:51;;;;;;;0.60;0.60;;;;;;;;;;4206686;28;20055;-62
2023/05/05 10:24:16;;;;;;;0.60;0.60;;;;;;;;;;4206621;28;20097;-63
2023/05/05 10:26:38;;;;;;;0.60;0.60;;;;;;;;;;4206168;28;20089;-63
2023/05/05 10:29:00;;;;;;;0.80;0.80;;;;;;;;;;4206228;28;20085;-63
2023/05/05 10:31:23;;;;;;;0.60;0.60;;;;;;;;;;4205384;28;20060;-63
2023/05/05 10:33:54;;;;;;;1.15;0.70;;;;;;;;;;4189962;28;20052;-62
2023/05/05 10:36:16;;;;;;;0.60;0.60;;;;;;;;;;4206654;28;20047;-63
2023/05/05 10:38:36;;;;;;;0.60;0.60;;;;;;;;;;4206117;28;20106;-63
2023/05/05 10:41:03;;;;;;;0.60;0.60;;;;;;;;;;4206173;28;20066;-63
2023/05/05 10:43:24;;;;;;;1.05;0.60;;;;;;;;;;4205453;28;20095;-63
2023/05/05 10:45:44;;;;;;;0.60;0.60;;;;;;;;;;4205623;28;20055;-63
2023/05/05 10:48:08;;;;;;;0.60;0.60;;;;;;;;;;4206217;28;20046;-63
2023/05/05 10:50:38;;;;;;;0.60;0.60;;;;;;;;;;4203918;28;20048;-63
2023/05/05 10:52:58;;;;;;;0.50;0.50;;;;;;;;;;4206203;28;20054;-63
2023/05/05 10:55:21;;;;;;;0.60;0.60;;;;;;;;;;4205268;28;20043;-63
2023/05/05 10:57:43;;;;;;;0.60;0.60;;;;;;;;;;4205956;28;20051;-63
2023/05/05 11:00:03;;;;;;;0.60;0.60;;;;;;;;;;4204862;28;20109;-63
2023/05/05 11:02:25;;;;;;;0.60;0.60;;;;;;;;;;4204867;28;20071;-63
2023/05/05 11:05:02;;;;;;;0.60;0.60;;;;;;;;;;4205061;28;20070;-63
2023/05/05 11:07:23;;;;;;;0.60;0.60;;;;;;;;;;4189075;28;20052;-63
2023/05/05 11:10:00;;;;;;;0.60;0.60;;;;;;;;;;4206021;28;20051;-63
2023/05/05 11:12:20;;;;;;;0.60;0.60;;;;;;;;;;4205544;28;20086;-63
2023/05/05 11:14:40;;;;;;;0.50;0.50;;;;;;;;;;4205780;28;20236;-63
2023/05/05 11:17:00;;;;;;;0.50;0.50;;;;;;;;;;4205941;28;20075;-63
2023/05/05 11:19:39;;;;;;;0.50;0.50;;;;;;;;;;4205284;28;20062;-63
2023/05/05 11:22:00;;;;;;;1.17;0.60;;;;;;;;;;4205221;28;20055;-63
2023/05/05 11:24:30;;;;;;;0.50;0.50;;;;;;;;;;4205135;28;20051;-64
2023/05/05 11:26:51;;;;;;;1.25;0.50;;;;;;;;;;4205250;28;20043;-63
2023/05/05 11:29:11;;;;;;;0.50;0.50;;;;;;;;;;4205148;28;20047;-63
2023/05/05 11:31:31;;;;;;;0.60;0.60;;;;;;;;;;4204994;28;20055;-63
2023/05/05 11:33:52;;;;;;;0.50;0.50;;;;;;;;;;4206084;28;20054;-63
2023/05/05 11:36:14;;;;;;;0.60;0.60;;;;;;;;;;4205715;28;20118;-63
2023/05/05 11:38:47;;;;;;;0.43;0.40;;;;;;;;;;4205056;28;20094;-63
2023/05/05 11:41:10;;;;;;;0.30;0.30;;;;;;;;;;4204388;28;20052;-63
2023/05/05 11:43:30;;;;;;;0.40;0.40;;;;;;;;;;4203789;28;20079;-62
2023/05/05 11:46:09;;;;;;;1.17;0.40;;;;;;;;;;4204570;28;20055;-61
2023/05/05 11:48:29;;;;;;;0.50;0.50;;;;;;;;;;4205591;28;20070;-61
2023/05/05 11:50:50;;;;;;;1.20;0.50;;;;;;;;;;4205222;28;20376;-61
2023/05/05 11:53:10;;;;;;;0.50;0.50;;;;;;;;;;4205352;28;20051;-61
2023/05/05 11:55:30;;;;;;;0.50;0.50;;;;;;;;;;4205332;28;20363;-61
2023/05/05 11:57:50;;;;;;;0.50;0.50;;;;;;;;;;4205626;28;20059;-61
2023/05/05 12:00:11;;;;;;;0.40;0.40;;;;;;;;;;4207959;28;20244;-61
2023/05/05 12:02:31;;;;;;;0.63;0.63;;;;;;;;;;4208063;28;20083;-61
2023/05/05 12:04:52;;;;;;;0.65;0.50;;;;;;;;;;4208296;28;20231;-62
2023/05/05 12:07:19;;;;;;;0.60;0.60;;;;;;;;;;4208017;28;20393;-61
2023/05/05 12:09:43;;;;;;;0.50;0.50;;;;;;;;;;4208076;28;20086;-61
2023/05/05 12:12:04;;;;;;;0.50;0.50;;;;;;;;;;4206872;28;20055;-61
2023/05/05 12:14:25;;;;;;;0.50;0.50;;;;;;;;;;4205965;28;20051;-61
2023/05/05 12:16:55;;;;;;;0.50;0.50;;;;;;;;;;4208165;28;20064;-61
2023/05/05 12:19:15;;;;;;;1.35;0.50;;;;;;;;;;4206513;28;20078;-61
2023/05/05 12:21:37;;;;;;;0.60;0.60;;;;;;;;;;4207929;28;20055;-61
2023/05/05 12:23:57;;;;;;;0.57;0.57;;;;;;;;;;4190436;28;20043;-61
2023/05/05 12:26:27;;;;;;;0.88;0.88;;;;;;;;;;4208026;28;20098;-61
2023/05/05 12:28:48;;;;;;;0.50;0.50;;;;;;;;;;4207845;28;20046;-61
2023/05/05 12:31:08;;;;;;;4.90;0.60;;;;;;;;;;4207945;28;20079;-61
2023/05/05 12:33:28;;;;;;;13.05;0.70;;;;;;;;;;4207426;28;20378;-61
2023/05/05 12:35:48;;;;;;;1.00;0.50;;;;;;;;;;4207824;28;20423;-61
2023/05/05 12:38:08;;;;;;;0.50;0.50;;;;;;;;;;4207970;28;20047;-61
2023/05/05 12:40:42;;;;;;;7.40;0.68;;;;;;;;;;4207590;28;20094;-61
2023/05/05 12:43:03;;;;;;;1.38;0.70;;;;;;;;;;4207431;28;20047;-60
2023/05/05 12:45:23;;;;;;;0.60;0.60;;;;;;;;;;4207180;28;20063;-62
2023/05/05 12:47:44;;;;;;;0.60;0.60;;;;;;;;;;4206520;28;20266;-62
2023/05/05 12:50:05;;;;;;;0.60;0.60;;;;;;;;;;4207712;28;20063;-62
2023/05/05 12:52:39;;;;;;;0.63;0.60;;;;;;;;;;4207821;28;20047;-62
2023/05/05 12:55:00;;;;;;;0.77;0.60;;;;;;;;;;4206817;28;20307;-62
2023/05/05 12:57:20;;;;;;;5.60;1.35;;;;;;;;;;4207513;28;20239;-62
2023/05/05 12:59:40;;;;;;;2.22;0.60;;;;;;;;;;4207222;28;20063;-62
2023/05/05 13:02:01;;;;;;;0.80;0.60;;;;;;;;;;4207568;28;20297;-61
2023/05/05 13:04:25;;;;;;;0.73;0.50;;;;;;;;;;4207564;28;20091;-62
2023/05/05 13:06:47;;;;;;;2.85;0.60;;;;;;;;;;4207488;28;20259;-62
2023/05/05 13:09:11;;;;;;;0.50;0.50;;;;;;;;;;4207067;28;20055;-61
2023/05/05 13:11:38;;;;;;;3.42;0.60;;;;;;;;;;4206037;28;20437;-62
2023/05/05 13:13:58;;;;;;;0.70;0.70;;;;;;;;;;4205544;28;20043;-62
2023/05/05 13:16:18;;;;;;;2.22;0.60;;;;;;;;;;4207370;28;20094;-63
2023/05/05 13:18:45;;;;;;;0.50;0.50;;;;;;;;;;4207276;28;20048;-62
2023/05/05 13:21:05;;;;;;;7.22;0.60;;;;;;;;;;4207041;28;20052;-62
2023/05/05 13:23:25;;;;;;;0.60;0.60;;;;;;;;;;4198311;28;20383;-62
2023/05/05 13:25:46;;;;;;;2.20;0.60;;;;;;;;;;4204993;28;20058;-62
2023/05/05 13:28:06;;;;;;;0.50;0.50;;;;;;;;;;4207423;28;20087;-62
2023/05/05 13:30:26;;;;;;;1.00;0.52;;;;;;;;;;4207119;28;20127;-61
2023/05/05 13:32:47;;;;;;;0.60;0.60;;;;;;;;;;4204966;28;20067;-61
2023/05/05 13:35:07;;;;;;;0.50;0.50;;;;;;;;;;4207207;28;20135;-62
2023/05/05 13:37:28;;;;;;;0.50;0.50;;;;;;;;;;4207124;28;20086;-62
2023/05/05 13:39:48;;;;;;;0.50;0.50;;;;;;;;;;4205536;28;20069;-62
2023/05/05 13:42:09;;;;;;;0.60;0.60;;;;;;;;;;4207172;28;20052;-61
2023/05/05 13:44:30;;;;;;;0.75;0.60;;;;;;;;;;4207068;28;20074;-62
2023/05/05 13:46:50;;;;;;;0.60;0.50;;;;;;;;;;4207000;28;20339;-62
2023/05/05 13:49:10;;;;;;;0.50;0.50;;;;;;;;;;4206976;28;20043;-62
2023/05/05 13:51:31;;;;;;;0.50;0.50;;;;;;;;;;4207221;28;20146;-62
2023/05/05 13:53:52;;;;;;;0.50;0.50;;;;;;;;;;4207066;28;20051;-62
2023/05/05 13:56:12;;;;;;;0.50;0.50;;;;;;;;;;4206748;28;20228;-62
2023/05/05 13:58:32;;;;;;;0.40;0.40;;;;;;;;;;4206232;28;20051;-62
2023/05/05 14:00:54;;;;;;;0.50;0.50;;;;;;;;;;4205870;28;20056;-62
2023/05/05 14:03:14;;;;;;;0.40;0.40;;;;;;;;;;4206800;28;20047;-62
2023/05/05 14:05:35;;;;;;;0.40;0.40;;;;;;;;;;4205880;28;20043;-62
2023/05/05 14:07:55;;;;;;;0.70;0.40;;;;;;;;;;4205608;28;20244;-62
2023/05/05 14:10:15;;;;;;;0.40;0.40;;;;;;;;;;4205414;28;20108;-62